sensor_id;sensor_type;location;lat;lon;timestamp;P1;durP1;ratioP1;P2;durP2;ratioP2
3149;SDS011;32503;47.748;8.960;2022-11-15T00:02:27;13.03;;;8.80;;
3149;SDS011;32503;47.748;8.960;2022-11-15T00:04:53;11.67;;;8.37;;
3149;SDS011;32503;47.748;8.960;2022-11-15T00:07:22;11.27;;;8.27;;
3149;SDS011;32503;47.748;8.960;2022-11-15T00:09:49;11.13;;;8.33;;
3149;SDS011;32503;47.748;8.960;2022-11-15T00:12:16;9.60;;;8.60;;
3149;SDS011;32503;47.748;8.960;2022-11-15T00:14:43;9.97;;;7.60;;
3149;SDS011;32503;47.748;8.960;2022-11-15T00:17:10;11.47;;;8.40;;
3149;SDS011;32503;47.748;8.960;2022-11-15T00:19:37;12.00;;;8.57;;
3149;SDS011;32503;47.748;8.960;2022-11-15T00:22:04;9.20;;;6.97;;
3149;SDS011;32503;47.748;8.960;2022-11-15T00:24:32;7.60;;;6.97;;
3149;SDS011;32503;47.748;8.960;2022-11-15T00:26:59;14.83;;;7.27;;
3149;SDS011;32503;47.748;8.960;2022-11-15T00:29:26;8.43;;;7.63;;
3149;SDS011;32503;47.748;8.960;2022-11-15T00:31:53;8.27;;;7.50;;
3149;SDS011;32503;47.748;8.960;2022-11-15T00:34:20;12.47;;;8.33;;
3149;SDS011;32503;47.748;8.960;2022-11-15T00:36:47;8.47;;;7.57;;
3149;SDS011;32503;47.748;8.960;2022-11-15T00:39:15;8.67;;;7.10;;
3149;SDS011;32503;47.748;8.960;2022-11-15T00:41:43;8.90;;;7.07;;
3149;SDS011;32503;47.748;8.960;2022-11-15T00:44:10;14.73;;;8.90;;
3149;SDS011;32503;47.748;8.960;2022-11-15T00:46:37;9.50;;;7.10;;
3149;SDS011;32503;47.748;8.960;2022-11-15T00:49:04;7.83;;;6.13;;
3149;SDS011;32503;47.748;8.960;2022-11-15T00:51:31;9.07;;;6.87;;
3149;SDS011;32503;47.748;8.960;2022-11-15T00:53:58;8.50;;;6.40;;
3149;SDS011;32503;47.748;8.960;2022-11-15T00:56:25;7.00;;;6.33;;
3149;SDS011;32503;47.748;8.960;2022-11-15T00:58:54;11.50;;;7.97;;
3149;SDS011;32503;47.748;8.960;2022-11-15T01:01:21;8.60;;;7.37;;
3149;SDS011;32503;47.748;8.960;2022-11-15T01:03:48;9.57;;;7.40;;
3149;SDS011;32503;47.748;8.960;2022-11-15T01:06:15;6.53;;;5.90;;
3149;SDS011;32503;47.748;8.960;2022-11-15T01:08:42;7.50;;;6.90;;
3149;SDS011;32503;47.748;8.960;2022-11-15T01:11:10;8.90;;;8.10;;
3149;SDS011;32503;47.748;8.960;2022-11-15T01:13:38;8.30;;;7.50;;
3149;SDS011;32503;47.748;8.960;2022-11-15T01:16:08;8.73;;;7.90;;
3149;SDS011;32503;47.748;8.960;2022-11-15T01:18:38;13.43;;;9.27;;
3149;SDS011;32503;47.748;8.960;2022-11-15T01:21:07;11.70;;;9.57;;
3149;SDS011;32503;47.748;8.960;2022-11-15T01:23:35;9.63;;;8.60;;
3149;SDS011;32503;47.748;8.960;2022-11-15T01:26:04;10.57;;;7.43;;
3149;SDS011;32503;47.748;8.960;2022-11-15T01:28:35;8.80;;;6.70;;
3149;SDS011;32503;47.748;8.960;2022-11-15T01:31:05;8.30;;;7.40;;
3149;SDS011;32503;47.748;8.960;2022-11-15T01:33:38;8.73;;;6.57;;
3149;SDS011;32503;47.748;8.960;2022-11-15T01:36:05;8.80;;;8.00;;
3149;SDS011;32503;47.748;8.960;2022-11-15T01:38:34;7.50;;;6.80;;
3149;SDS011;32503;47.748;8.960;2022-11-15T01:41:01;6.60;;;6.07;;
3149;SDS011;32503;47.748;8.960;2022-11-15T01:43:29;6.80;;;6.20;;
3149;SDS011;32503;47.748;8.960;2022-11-15T01:45:58;7.33;;;6.83;;
3149;SDS011;32503;47.748;8.960;2022-11-15T01:48:32;6.10;;;5.70;;
3149;SDS011;32503;47.748;8.960;2022-11-15T01:51:00;6.17;;;5.60;;
3149;SDS011;32503;47.748;8.960;2022-11-15T01:53:32;7.70;;;5.77;;
3149;SDS011;32503;47.748;8.960;2022-11-15T01:56:02;7.00;;;6.10;;
3149;SDS011;32503;47.748;8.960;2022-11-15T01:58:32;6.23;;;5.80;;
3149;SDS011;32503;47.748;8.960;2022-11-15T02:01:00;7.00;;;6.40;;
3149;SDS011;32503;47.748;8.960;2022-11-15T02:03:29;6.40;;;5.90;;
3149;SDS011;32503;47.748;8.960;2022-11-15T02:06:07;6.20;;;5.70;;
3149;SDS011;32503;47.748;8.960;2022-11-15T02:08:34;7.13;;;6.40;;
3149;SDS011;32503;47.748;8.960;2022-11-15T02:11:03;6.00;;;5.50;;
3149;SDS011;32503;47.748;8.960;2022-11-15T02:13:33;6.80;;;5.43;;
3149;SDS011;32503;47.748;8.960;2022-11-15T02:16:03;5.60;;;5.20;;
3149;SDS011;32503;47.748;8.960;2022-11-15T02:18:41;6.00;;;5.37;;
3149;SDS011;32503;47.748;8.960;2022-11-15T02:21:20;6.50;;;5.77;;
3149;SDS011;32503;47.748;8.960;2022-11-15T02:30:44;5.70;;;5.10;;
3149;SDS011;32503;47.748;8.960;2022-11-15T02:33:17;6.97;;;6.20;;
3149;SDS011;32503;47.748;8.960;2022-11-15T02:36:00;6.40;;;5.90;;
3149;SDS011;32503;47.748;8.960;2022-11-15T02:38:34;6.43;;;5.90;;
3149;SDS011;32503;47.748;8.960;2022-11-15T02:41:09;6.03;;;5.43;;
3149;SDS011;32503;47.748;8.960;2022-11-15T02:43:39;7.80;;;7.00;;
3149;SDS011;32503;47.748;8.960;2022-11-15T02:46:27;7.33;;;5.73;;
3149;SDS011;32503;47.748;8.960;2022-11-15T02:49:19;7.10;;;6.40;;
3149;SDS011;32503;47.748;8.960;2022-11-15T02:51:47;7.50;;;6.03;;
3149;SDS011;32503;47.748;8.960;2022-11-15T02:54:17;7.03;;;6.10;;
3149;SDS011;32503;47.748;8.960;2022-11-15T02:56:51;7.80;;;7.03;;
3149;SDS011;32503;47.748;8.960;2022-11-15T03:02:34;8.50;;;6.60;;
3149;SDS011;32503;47.748;8.960;2022-11-15T03:05:18;10.23;;;6.53;;
3149;SDS011;32503;47.748;8.960;2022-11-15T03:07:53;8.17;;;6.00;;
3149;SDS011;32503;47.748;8.960;2022-11-15T03:10:29;8.43;;;5.80;;
3149;SDS011;32503;47.748;8.960;2022-11-15T03:13:07;6.63;;;6.03;;
3149;SDS011;32503;47.748;8.960;2022-11-15T03:15:50;5.90;;;5.20;;
3149;SDS011;32503;47.748;8.960;2022-11-15T03:18:27;10.10;;;6.90;;
3149;SDS011;32503;47.748;8.960;2022-11-15T03:20:59;5.93;;;5.40;;
3149;SDS011;32503;47.748;8.960;2022-11-15T03:23:30;7.77;;;6.47;;
3149;SDS011;32503;47.748;8.960;2022-11-15T03:25:59;9.10;;;5.87;;
3149;SDS011;32503;47.748;8.960;2022-11-15T03:28:28;8.73;;;6.77;;
3149;SDS011;32503;47.748;8.960;2022-11-15T03:31:02;8.50;;;6.57;;
3149;SDS011;32503;47.748;8.960;2022-11-15T03:33:53;7.67;;;6.50;;
3149;SDS011;32503;47.748;8.960;2022-11-15T03:36:23;12.60;;;7.13;;
3149;SDS011;32503;47.748;8.960;2022-11-15T03:38:53;6.50;;;5.90;;
3149;SDS011;32503;47.748;8.960;2022-11-15T03:41:25;9.67;;;6.23;;
3149;SDS011;32503;47.748;8.960;2022-11-15T03:44:04;9.10;;;6.30;;
3149;SDS011;32503;47.748;8.960;2022-11-15T03:46:38;6.83;;;6.20;;
3149;SDS011;32503;47.748;8.960;2022-11-15T03:49:13;9.40;;;6.63;;
3149;SDS011;32503;47.748;8.960;2022-11-15T03:51:46;9.23;;;6.70;;
3149;SDS011;32503;47.748;8.960;2022-11-15T03:54:13;8.50;;;7.00;;
3149;SDS011;32503;47.748;8.960;2022-11-15T03:56:40;11.43;;;6.17;;
3149;SDS011;32503;47.748;8.960;2022-11-15T03:59:07;7.17;;;6.40;;
3149;SDS011;32503;47.748;8.960;2022-11-15T04:01:34;11.13;;;7.10;;
3149;SDS011;32503;47.748;8.960;2022-11-15T04:04:01;11.33;;;6.87;;
3149;SDS011;32503;47.748;8.960;2022-11-15T04:06:29;10.00;;;7.20;;
3149;SDS011;32503;47.748;8.960;2022-11-15T04:08:56;6.97;;;6.13;;
3149;SDS011;32503;47.748;8.960;2022-11-15T04:11:23;7.70;;;6.50;;
3149;SDS011;32503;47.748;8.960;2022-11-15T04:13:50;7.40;;;6.57;;
3149;SDS011;32503;47.748;8.960;2022-11-15T04:16:17;11.10;;;6.60;;
3149;SDS011;32503;47.748;8.960;2022-11-15T04:18:44;14.40;;;7.00;;
3149;SDS011;32503;47.748;8.960;2022-11-15T04:21:33;8.50;;;6.60;;
3149;SDS011;32503;47.748;8.960;2022-11-15T04:24:17;10.17;;;6.87;;
3149;SDS011;32503;47.748;8.960;2022-11-15T04:26:44;7.80;;;6.60;;
3149;SDS011;32503;47.748;8.960;2022-11-15T04:29:11;12.43;;;7.83;;
3149;SDS011;32503;47.748;8.960;2022-11-15T04:31:55;10.17;;;6.53;;
3149;SDS011;32503;47.748;8.960;2022-11-15T04:34:22;8.53;;;6.50;;
3149;SDS011;32503;47.748;8.960;2022-11-15T04:36:50;7.20;;;6.17;;
3149;SDS011;32503;47.748;8.960;2022-11-15T04:39:35;7.13;;;6.10;;
3149;SDS011;32503;47.748;8.960;2022-11-15T04:42:02;7.87;;;5.43;;
3149;SDS011;32503;47.748;8.960;2022-11-15T04:44:29;7.60;;;5.10;;
3149;SDS011;32503;47.748;8.960;2022-11-15T04:46:56;5.83;;;5.40;;
3149;SDS011;32503;47.748;8.960;2022-11-15T04:49:23;7.93;;;6.40;;
3149;SDS011;32503;47.748;8.960;2022-11-15T04:51:51;6.77;;;6.20;;
3149;SDS011;32503;47.748;8.960;2022-11-15T04:54:18;6.93;;;6.27;;
3149;SDS011;32503;47.748;8.960;2022-11-15T04:56:45;6.37;;;5.77;;
3149;SDS011;32503;47.748;8.960;2022-11-15T04:59:12;6.50;;;5.87;;
3149;SDS011;32503;47.748;8.960;2022-11-15T05:01:39;9.23;;;5.80;;
3149;SDS011;32503;47.748;8.960;2022-11-15T05:04:07;9.13;;;7.53;;
3149;SDS011;32503;47.748;8.960;2022-11-15T05:06:46;6.70;;;5.63;;
3149;SDS011;32503;47.748;8.960;2022-11-15T05:09:18;6.47;;;5.87;;
3149;SDS011;32503;47.748;8.960;2022-11-15T05:11:46;8.13;;;6.60;;
3149;SDS011;32503;47.748;8.960;2022-11-15T05:14:14;9.03;;;6.27;;
3149;SDS011;32503;47.748;8.960;2022-11-15T05:16:41;7.57;;;6.50;;
3149;SDS011;32503;47.748;8.960;2022-11-15T05:19:09;9.17;;;6.80;;
3149;SDS011;32503;47.748;8.960;2022-11-15T05:21:36;9.00;;;7.30;;
3149;SDS011;32503;47.748;8.960;2022-11-15T05:24:05;15.07;;;9.90;;
3149;SDS011;32503;47.748;8.960;2022-11-15T05:26:35;11.97;;;9.00;;
3149;SDS011;32503;47.748;8.960;2022-11-15T05:29:02;9.87;;;7.90;;
3149;SDS011;32503;47.748;8.960;2022-11-15T05:31:29;9.17;;;6.83;;
3149;SDS011;32503;47.748;8.960;2022-11-15T05:33:56;8.53;;;7.70;;
3149;SDS011;32503;47.748;8.960;2022-11-15T05:36:27;9.00;;;7.50;;
3149;SDS011;32503;47.748;8.960;2022-11-15T05:38:59;8.40;;;7.43;;
3149;SDS011;32503;47.748;8.960;2022-11-15T05:41:29;7.90;;;6.33;;
3149;SDS011;32503;47.748;8.960;2022-11-15T05:44:00;10.30;;;7.73;;
3149;SDS011;32503;47.748;8.960;2022-11-15T05:46:29;7.80;;;6.30;;
3149;SDS011;32503;47.748;8.960;2022-11-15T05:48:56;6.80;;;6.17;;
3149;SDS011;32503;47.748;8.960;2022-11-15T05:51:24;6.03;;;5.43;;
3149;SDS011;32503;47.748;8.960;2022-11-15T05:53:54;7.23;;;6.53;;
3149;SDS011;32503;47.748;8.960;2022-11-15T05:56:24;8.67;;;6.40;;
3149;SDS011;32503;47.748;8.960;2022-11-15T05:58:53;6.40;;;5.90;;
3149;SDS011;32503;47.748;8.960;2022-11-15T06:01:24;7.43;;;6.80;;
3149;SDS011;32503;47.748;8.960;2022-11-15T06:03:52;6.33;;;5.73;;
3149;SDS011;32503;47.748;8.960;2022-11-15T06:06:19;8.30;;;7.37;;
3149;SDS011;32503;47.748;8.960;2022-11-15T06:08:46;8.20;;;6.60;;
3149;SDS011;32503;47.748;8.960;2022-11-15T06:11:13;7.73;;;6.27;;
3149;SDS011;32503;47.748;8.960;2022-11-15T06:13:40;11.00;;;6.90;;
3149;SDS011;32503;47.748;8.960;2022-11-15T06:16:09;8.83;;;7.43;;
3149;SDS011;32503;47.748;8.960;2022-11-15T06:18:36;7.03;;;6.40;;
3149;SDS011;32503;47.748;8.960;2022-11-15T06:21:04;7.30;;;6.60;;
3149;SDS011;32503;47.748;8.960;2022-11-15T06:23:32;12.83;;;6.83;;
3149;SDS011;32503;47.748;8.960;2022-11-15T06:26:01;12.17;;;6.40;;
3149;SDS011;32503;47.748;8.960;2022-11-15T06:28:29;8.10;;;7.03;;
3149;SDS011;32503;47.748;8.960;2022-11-15T06:31:01;7.80;;;6.37;;
3149;SDS011;32503;47.748;8.960;2022-11-15T06:33:31;6.97;;;6.37;;
3149;SDS011;32503;47.748;8.960;2022-11-15T06:36:00;9.80;;;7.07;;
3149;SDS011;32503;47.748;8.960;2022-11-15T06:38:27;11.50;;;7.03;;
3149;SDS011;32503;47.748;8.960;2022-11-15T06:40:54;8.70;;;6.83;;
3149;SDS011;32503;47.748;8.960;2022-11-15T06:43:27;8.17;;;7.40;;
3149;SDS011;32503;47.748;8.960;2022-11-15T06:45:54;9.97;;;7.53;;
3149;SDS011;32503;47.748;8.960;2022-11-15T06:48:21;12.40;;;6.50;;
3149;SDS011;32503;47.748;8.960;2022-11-15T06:50:51;7.17;;;6.30;;
3149;SDS011;32503;47.748;8.960;2022-11-15T06:53:18;7.93;;;7.07;;
3149;SDS011;32503;47.748;8.960;2022-11-15T06:55:45;8.63;;;6.20;;
3149;SDS011;32503;47.748;8.960;2022-11-15T06:58:12;10.53;;;8.40;;
3149;SDS011;32503;47.748;8.960;2022-11-15T07:00:39;12.87;;;7.07;;
3149;SDS011;32503;47.748;8.960;2022-11-15T07:03:07;7.17;;;6.40;;
3149;SDS011;32503;47.748;8.960;2022-11-15T07:05:34;11.97;;;7.90;;
3149;SDS011;32503;47.748;8.960;2022-11-15T07:08:04;13.90;;;8.80;;
3149;SDS011;32503;47.748;8.960;2022-11-15T07:10:31;10.07;;;8.13;;
3149;SDS011;32503;47.748;8.960;2022-11-15T07:12:58;11.07;;;7.27;;
3149;SDS011;32503;47.748;8.960;2022-11-15T07:15:25;11.87;;;7.67;;
3149;SDS011;32503;47.748;8.960;2022-11-15T07:17:52;11.90;;;7.30;;
3149;SDS011;32503;47.748;8.960;2022-11-15T07:20:19;11.50;;;7.70;;
3149;SDS011;32503;47.748;8.960;2022-11-15T07:22:46;11.30;;;7.63;;
3149;SDS011;32503;47.748;8.960;2022-11-15T07:25:15;12.17;;;7.77;;
3149;SDS011;32503;47.748;8.960;2022-11-15T07:27:42;11.13;;;7.00;;
3149;SDS011;32503;47.748;8.960;2022-11-15T07:30:09;14.27;;;8.13;;
3149;SDS011;32503;47.748;8.960;2022-11-15T07:32:38;9.40;;;7.47;;
3149;SDS011;32503;47.748;8.960;2022-11-15T07:35:05;14.30;;;7.13;;
3149;SDS011;32503;47.748;8.960;2022-11-15T07:37:33;11.40;;;8.03;;
3149;SDS011;32503;47.748;8.960;2022-11-15T07:40:00;12.43;;;7.53;;
3149;SDS011;32503;47.748;8.960;2022-11-15T07:42:28;15.30;;;8.93;;
3149;SDS011;32503;47.748;8.960;2022-11-15T07:45:18;14.83;;;7.70;;
3149;SDS011;32503;47.748;8.960;2022-11-15T07:47:46;7.37;;;6.47;;
3149;SDS011;32503;47.748;8.960;2022-11-15T07:50:13;9.90;;;6.77;;
3149;SDS011;32503;47.748;8.960;2022-11-15T07:52:40;10.73;;;7.37;;
3149;SDS011;32503;47.748;8.960;2022-11-15T07:55:07;8.07;;;6.50;;
3149;SDS011;32503;47.748;8.960;2022-11-15T07:57:36;12.53;;;7.10;;
3149;SDS011;32503;47.748;8.960;2022-11-15T08:00:04;7.40;;;5.93;;
3149;SDS011;32503;47.748;8.960;2022-11-15T08:02:33;11.13;;;6.90;;
3149;SDS011;32503;47.748;8.960;2022-11-15T08:05:00;8.97;;;6.63;;
3149;SDS011;32503;47.748;8.960;2022-11-15T08:07:28;22.90;;;8.57;;
3149;SDS011;32503;47.748;8.960;2022-11-15T08:09:56;9.70;;;6.90;;
3149;SDS011;32503;47.748;8.960;2022-11-15T08:12:23;11.43;;;7.50;;
3149;SDS011;32503;47.748;8.960;2022-11-15T08:14:52;11.53;;;7.23;;
3149;SDS011;32503;47.748;8.960;2022-11-15T08:17:19;16.23;;;7.63;;
3149;SDS011;32503;47.748;8.960;2022-11-15T08:19:46;12.67;;;8.53;;
3149;SDS011;32503;47.748;8.960;2022-11-15T08:22:13;11.70;;;7.50;;
3149;SDS011;32503;47.748;8.960;2022-11-15T08:24:41;11.50;;;7.40;;
3149;SDS011;32503;47.748;8.960;2022-11-15T08:27:08;13.27;;;7.97;;
3149;SDS011;32503;47.748;8.960;2022-11-15T08:29:39;14.87;;;8.40;;
3149;SDS011;32503;47.748;8.960;2022-11-15T08:32:09;10.00;;;7.23;;
3149;SDS011;32503;47.748;8.960;2022-11-15T08:34:37;13.50;;;8.07;;
3149;SDS011;32503;47.748;8.960;2022-11-15T08:37:04;12.40;;;8.17;;
3149;SDS011;32503;47.748;8.960;2022-11-15T08:39:32;9.43;;;7.33;;
3149;SDS011;32503;47.748;8.960;2022-11-15T08:41:59;11.23;;;7.07;;
3149;SDS011;32503;47.748;8.960;2022-11-15T08:44:26;7.90;;;6.70;;
3149;SDS011;32503;47.748;8.960;2022-11-15T08:46:53;8.00;;;7.27;;
3149;SDS011;32503;47.748;8.960;2022-11-15T08:49:22;9.93;;;7.77;;
3149;SDS011;32503;47.748;8.960;2022-11-15T08:51:49;11.97;;;7.70;;
3149;SDS011;32503;47.748;8.960;2022-11-15T08:54:16;19.00;;;7.63;;
3149;SDS011;32503;47.748;8.960;2022-11-15T08:56:43;12.97;;;7.07;;
3149;SDS011;32503;47.748;8.960;2022-11-15T08:59:10;11.23;;;8.93;;
3149;SDS011;32503;47.748;8.960;2022-11-15T09:01:37;14.83;;;10.07;;
3149;SDS011;32503;47.748;8.960;2022-11-15T09:04:04;13.23;;;8.67;;
3149;SDS011;32503;47.748;8.960;2022-11-15T09:06:32;13.30;;;8.50;;
3149;SDS011;32503;47.748;8.960;2022-11-15T09:09:00;14.70;;;9.17;;
3149;SDS011;32503;47.748;8.960;2022-11-15T09:11:27;10.93;;;8.57;;
3149;SDS011;32503;47.748;8.960;2022-11-15T09:13:54;10.83;;;7.70;;
3149;SDS011;32503;47.748;8.960;2022-11-15T09:16:21;12.90;;;8.83;;
3149;SDS011;32503;47.748;8.960;2022-11-15T09:18:48;16.43;;;9.77;;
3149;SDS011;32503;47.748;8.960;2022-11-15T09:21:16;13.40;;;7.97;;
3149;SDS011;32503;47.748;8.960;2022-11-15T09:23:44;14.13;;;9.50;;
3149;SDS011;32503;47.748;8.960;2022-11-15T09:26:12;14.87;;;8.30;;
3149;SDS011;32503;47.748;8.960;2022-11-15T09:28:39;13.13;;;9.17;;
3149;SDS011;32503;47.748;8.960;2022-11-15T09:31:07;13.63;;;9.20;;
3149;SDS011;32503;47.748;8.960;2022-11-15T09:33:35;14.90;;;8.80;;
3149;SDS011;32503;47.748;8.960;2022-11-15T09:36:03;9.80;;;8.17;;
3149;SDS011;32503;47.748;8.960;2022-11-15T09:38:33;14.47;;;9.10;;
3149;SDS011;32503;47.748;8.960;2022-11-15T09:44:16;18.20;;;9.53;;
3149;SDS011;32503;47.748;8.960;2022-11-15T09:47:20;10.33;;;8.70;;
3149;SDS011;32503;47.748;8.960;2022-11-15T09:50:08;12.17;;;9.30;;
3149;SDS011;32503;47.748;8.960;2022-11-15T09:52:39;13.90;;;10.60;;
3149;SDS011;32503;47.748;8.960;2022-11-15T09:55:14;13.70;;;9.63;;
3149;SDS011;32503;47.748;8.960;2022-11-15T09:57:49;12.67;;;8.40;;
3149;SDS011;32503;47.748;8.960;2022-11-15T10:00:28;14.83;;;9.27;;
3149;SDS011;32503;47.748;8.960;2022-11-15T10:03:11;14.33;;;7.63;;
3149;SDS011;32503;47.748;8.960;2022-11-15T10:05:41;14.00;;;9.07;;
3149;SDS011;32503;47.748;8.960;2022-11-15T10:08:23;12.83;;;8.77;;
3149;SDS011;32503;47.748;8.960;2022-11-15T10:11:10;15.40;;;9.13;;
3149;SDS011;32503;47.748;8.960;2022-11-15T10:13:45;11.97;;;9.10;;
3149;SDS011;32503;47.748;8.960;2022-11-15T10:16:23;16.13;;;9.77;;
3149;SDS011;32503;47.748;8.960;2022-11-15T10:19:07;13.77;;;9.40;;
3149;SDS011;32503;47.748;8.960;2022-11-15T10:21:45;15.03;;;10.80;;
3149;SDS011;32503;47.748;8.960;2022-11-15T10:24:26;16.90;;;10.40;;
3149;SDS011;32503;47.748;8.960;2022-11-15T10:26:59;16.33;;;11.20;;
3149;SDS011;32503;47.748;8.960;2022-11-15T10:29:28;18.70;;;11.10;;
3149;SDS011;32503;47.748;8.960;2022-11-15T10:31:55;13.07;;;8.97;;
3149;SDS011;32503;47.748;8.960;2022-11-15T10:34:23;19.90;;;12.37;;
3149;SDS011;32503;47.748;8.960;2022-11-15T10:36:54;12.80;;;10.80;;
3149;SDS011;32503;47.748;8.960;2022-11-15T10:39:23;21.10;;;12.80;;
3149;SDS011;32503;47.748;8.960;2022-11-15T10:41:51;12.73;;;10.40;;
3149;SDS011;32503;47.748;8.960;2022-11-15T10:44:19;15.23;;;10.60;;
3149;SDS011;32503;47.748;8.960;2022-11-15T10:49:54;10.43;;;8.50;;
3149;SDS011;32503;47.748;8.960;2022-11-15T10:52:24;12.93;;;9.70;;
3149;SDS011;32503;47.748;8.960;2022-11-15T10:54:54;18.20;;;9.67;;
3149;SDS011;32503;47.748;8.960;2022-11-15T10:57:26;15.13;;;8.57;;
3149;SDS011;32503;47.748;8.960;2022-11-15T10:59:56;13.73;;;9.50;;
3149;SDS011;32503;47.748;8.960;2022-11-15T11:02:30;14.37;;;9.07;;
3149;SDS011;32503;47.748;8.960;2022-11-15T11:05:00;12.30;;;9.10;;
3149;SDS011;32503;47.748;8.960;2022-11-15T11:07:30;15.40;;;10.70;;
3149;SDS011;32503;47.748;8.960;2022-11-15T11:10:00;15.20;;;10.17;;
3149;SDS011;32503;47.748;8.960;2022-11-15T11:12:31;15.33;;;9.93;;
3149;SDS011;32503;47.748;8.960;2022-11-15T11:15:00;13.67;;;9.53;;
3149;SDS011;32503;47.748;8.960;2022-11-15T11:17:48;18.17;;;11.10;;
3149;SDS011;32503;47.748;8.960;2022-11-15T11:20:30;15.40;;;10.17;;
3149;SDS011;32503;47.748;8.960;2022-11-15T11:23:05;15.13;;;10.20;;
3149;SDS011;32503;47.748;8.960;2022-11-15T11:26:06;56.27;;;22.77;;
3149;SDS011;32503;47.748;8.960;2022-11-15T11:28:58;25.37;;;13.60;;
3149;SDS011;32503;47.748;8.960;2022-11-15T11:31:35;20.10;;;12.37;;
3149;SDS011;32503;47.748;8.960;2022-11-15T11:34:17;26.77;;;16.60;;
3149;SDS011;32503;47.748;8.960;2022-11-15T11:37:01;20.10;;;12.83;;
3149;SDS011;32503;47.748;8.960;2022-11-15T11:39:39;15.60;;;10.37;;
3149;SDS011;32503;47.748;8.960;2022-11-15T11:42:16;16.90;;;12.57;;
3149;SDS011;32503;47.748;8.960;2022-11-15T11:44:59;19.90;;;13.33;;
3149;SDS011;32503;47.748;8.960;2022-11-15T11:47:43;18.90;;;12.70;;
3149;SDS011;32503;47.748;8.960;2022-11-15T11:50:19;18.70;;;12.60;;
3149;SDS011;32503;47.748;8.960;2022-11-15T11:52:54;12.30;;;10.37;;
3149;SDS011;32503;47.748;8.960;2022-11-15T11:55:26;19.50;;;10.90;;
3149;SDS011;32503;47.748;8.960;2022-11-15T11:58:02;16.17;;;10.67;;
3149;SDS011;32503;47.748;8.960;2022-11-15T12:00:38;12.70;;;10.17;;
3149;SDS011;32503;47.748;8.960;2022-11-15T12:03:12;16.27;;;11.70;;
3149;SDS011;32503;47.748;8.960;2022-11-15T12:05:50;18.60;;;12.77;;
3149;SDS011;32503;47.748;8.960;2022-11-15T12:08:23;17.00;;;12.50;;
3149;SDS011;32503;47.748;8.960;2022-11-15T12:11:00;15.93;;;11.47;;
3149;SDS011;32503;47.748;8.960;2022-11-15T12:13:35;19.70;;;11.80;;
3149;SDS011;32503;47.748;8.960;2022-11-15T12:16:05;16.20;;;11.27;;
3149;SDS011;32503;47.748;8.960;2022-11-15T12:18:41;17.93;;;12.90;;
3149;SDS011;32503;47.748;8.960;2022-11-15T12:21:15;17.37;;;10.63;;
3149;SDS011;32503;47.748;8.960;2022-11-15T12:23:49;12.70;;;10.63;;
3149;SDS011;32503;47.748;8.960;2022-11-15T12:26:22;14.60;;;10.43;;
3149;SDS011;32503;47.748;8.960;2022-11-15T12:28:52;14.87;;;10.50;;
3149;SDS011;32503;47.748;8.960;2022-11-15T12:31:24;14.47;;;10.63;;
3149;SDS011;32503;47.748;8.960;2022-11-15T12:34:02;15.90;;;10.53;;
3149;SDS011;32503;47.748;8.960;2022-11-15T12:36:41;12.10;;;8.43;;
3149;SDS011;32503;47.748;8.960;2022-11-15T12:39:10;15.40;;;10.57;;
3149;SDS011;32503;47.748;8.960;2022-11-15T12:41:39;12.53;;;9.37;;
3149;SDS011;32503;47.748;8.960;2022-11-15T12:44:10;15.60;;;10.17;;
3149;SDS011;32503;47.748;8.960;2022-11-15T12:49:43;15.57;;;10.50;;
3149;SDS011;32503;47.748;8.960;2022-11-15T12:52:13;11.43;;;9.50;;
3149;SDS011;32503;47.748;8.960;2022-11-15T12:54:54;13.40;;;10.30;;
3149;SDS011;32503;47.748;8.960;2022-11-15T13:03:26;17.03;;;8.90;;
3149;SDS011;32503;47.748;8.960;2022-11-15T13:05:56;12.50;;;9.70;;
3149;SDS011;32503;47.748;8.960;2022-11-15T13:08:42;11.60;;;9.47;;
3149;SDS011;32503;47.748;8.960;2022-11-15T13:14:38;13.57;;;7.97;;
3149;SDS011;32503;47.748;8.960;2022-11-15T13:17:28;9.73;;;8.10;;
3149;SDS011;32503;47.748;8.960;2022-11-15T13:20:08;12.13;;;8.83;;
3149;SDS011;32503;47.748;8.960;2022-11-15T13:22:46;11.07;;;8.60;;
3149;SDS011;32503;47.748;8.960;2022-11-15T13:25:46;9.83;;;8.73;;
3149;SDS011;32503;47.748;8.960;2022-11-15T13:28:29;11.03;;;8.13;;
3149;SDS011;32503;47.748;8.960;2022-11-15T13:31:00;12.40;;;8.73;;
3149;SDS011;32503;47.748;8.960;2022-11-15T13:33:30;11.40;;;9.13;;
3149;SDS011;32503;47.748;8.960;2022-11-15T13:36:02;8.97;;;7.80;;
3149;SDS011;32503;47.748;8.960;2022-11-15T13:38:34;9.60;;;7.67;;
3149;SDS011;32503;47.748;8.960;2022-11-15T13:41:14;12.23;;;9.00;;
3149;SDS011;32503;47.748;8.960;2022-11-15T13:43:46;9.40;;;8.20;;
3149;SDS011;32503;47.748;8.960;2022-11-15T13:46:15;10.17;;;8.23;;
3149;SDS011;32503;47.748;8.960;2022-11-15T13:48:44;10.00;;;8.10;;
3149;SDS011;32503;47.748;8.960;2022-11-15T13:51:15;13.67;;;9.40;;
3149;SDS011;32503;47.748;8.960;2022-11-15T13:53:50;9.50;;;8.13;;
3149;SDS011;32503;47.748;8.960;2022-11-15T13:56:24;10.53;;;8.23;;
3149;SDS011;32503;47.748;8.960;2022-11-15T13:58:54;11.13;;;9.30;;
3149;SDS011;32503;47.748;8.960;2022-11-15T14:01:21;10.33;;;8.80;;
3149;SDS011;32503;47.748;8.960;2022-11-15T14:03:51;11.20;;;8.97;;
3149;SDS011;32503;47.748;8.960;2022-11-15T14:06:22;8.67;;;6.80;;
3149;SDS011;32503;47.748;8.960;2022-11-15T14:14:56;18.60;;;12.70;;
3149;SDS011;32503;47.748;8.960;2022-11-15T14:17:33;26.07;;;13.17;;
3149;SDS011;32503;47.748;8.960;2022-11-15T14:20:26;16.63;;;12.47;;
3149;SDS011;32503;47.748;8.960;2022-11-15T14:23:02;15.80;;;11.13;;
3149;SDS011;32503;47.748;8.960;2022-11-15T14:25:31;12.60;;;10.53;;
3149;SDS011;32503;47.748;8.960;2022-11-15T14:28:15;11.47;;;8.50;;
3149;SDS011;32503;47.748;8.960;2022-11-15T14:30:58;10.57;;;8.03;;
3149;SDS011;32503;47.748;8.960;2022-11-15T14:33:27;10.30;;;8.20;;
3149;SDS011;32503;47.748;8.960;2022-11-15T14:35:56;9.40;;;7.90;;
3149;SDS011;32503;47.748;8.960;2022-11-15T14:38:28;12.27;;;9.03;;
3149;SDS011;32503;47.748;8.960;2022-11-15T14:40:55;13.77;;;9.70;;
3149;SDS011;32503;47.748;8.960;2022-11-15T14:43:24;14.27;;;10.50;;
3149;SDS011;32503;47.748;8.960;2022-11-15T14:45:51;9.80;;;8.50;;
3149;SDS011;32503;47.748;8.960;2022-11-15T14:48:19;11.30;;;9.60;;
3149;SDS011;32503;47.748;8.960;2022-11-15T14:50:47;13.57;;;9.30;;
3149;SDS011;32503;47.748;8.960;2022-11-15T14:53:15;13.20;;;9.10;;
3149;SDS011;32503;47.748;8.960;2022-11-15T14:55:44;12.97;;;10.70;;
3149;SDS011;32503;47.748;8.960;2022-11-15T14:58:12;11.90;;;9.60;;
3149;SDS011;32503;47.748;8.960;2022-11-15T15:00:40;10.77;;;9.67;;
3149;SDS011;32503;47.748;8.960;2022-11-15T15:03:08;15.97;;;10.43;;
3149;SDS011;32503;47.748;8.960;2022-11-15T15:05:37;12.27;;;9.53;;
3149;SDS011;32503;47.748;8.960;2022-11-15T15:08:06;19.50;;;10.33;;
3149;SDS011;32503;47.748;8.960;2022-11-15T15:10:35;10.33;;;8.70;;
3149;SDS011;32503;47.748;8.960;2022-11-15T15:13:04;11.40;;;9.70;;
3149;SDS011;32503;47.748;8.960;2022-11-15T15:15:32;12.00;;;9.53;;
3149;SDS011;32503;47.748;8.960;2022-11-15T15:18:03;15.23;;;10.80;;
3149;SDS011;32503;47.748;8.960;2022-11-15T15:20:33;14.40;;;11.37;;
3149;SDS011;32503;47.748;8.960;2022-11-15T15:23:01;15.90;;;11.73;;
3149;SDS011;32503;47.748;8.960;2022-11-15T15:25:28;16.73;;;12.23;;
3149;SDS011;32503;47.748;8.960;2022-11-15T15:27:59;19.30;;;13.30;;
3149;SDS011;32503;47.748;8.960;2022-11-15T15:30:27;9.87;;;8.40;;
3149;SDS011;32503;47.748;8.960;2022-11-15T15:32:56;17.77;;;11.90;;
3149;SDS011;32503;47.748;8.960;2022-11-15T15:35:25;17.60;;;11.07;;
3149;SDS011;32503;47.748;8.960;2022-11-15T15:37:57;15.80;;;11.60;;
3149;SDS011;32503;47.748;8.960;2022-11-15T15:40:25;12.77;;;9.80;;
3149;SDS011;32503;47.748;8.960;2022-11-15T15:42:55;15.80;;;11.50;;
3149;SDS011;32503;47.748;8.960;2022-11-15T15:45:22;9.67;;;8.40;;
3149;SDS011;32503;47.748;8.960;2022-11-15T15:47:51;17.27;;;10.07;;
3149;SDS011;32503;47.748;8.960;2022-11-15T15:50:22;14.33;;;10.20;;